x

South Brooks (46132) Wave Buoy

8:00am - Fri 21st Jul 2017 All times are PDT. -7 hours from GMT.

  • Sig Wave height 4.6ft
  • Peak Period 5s
  • Wind
    20mph, 25mph gusts
  • Sea Temp 60°f
  • Air Temp 58°f
  • Sea Pressure 1017.6mb
  • South Brooks
  • South Brooks

More Historic Weather Station data

Upgrade to MSW Pro to gain access to the past 30 days of data for over 8000 Wavebouys and Weather Stations around the globe.

Join Pro

Comparision Forecast

View Surf forecast
   
Fri 07/21 8:00am 4.5ft 5s 20 25 mph 1017.6mb 60f 58f
7:00am 4ft 5s 18 22 mph 1017.8mb 60f 58f
6:00am 4ft 4s 20 25 mph 1017.7mb 60f 58f
5:00am 3.5ft 5s 20 22 mph 1017.7mb 60f 59f
4:00am 3.5ft 5s 16 18 mph 1018.1mb 59f 59f
3:00am 3ft 4s 16 20 mph 1018.4mb 59f 59f
2:00am 2.5ft 4s 18 20 mph 1018.7mb 59f 59f
1:00am 2.5ft 4s 16 18 mph 1018.8mb 59f 60f
12:00am 2.5ft 14s 16 18 mph 1018.8mb 59f 60f
Thu 07/20 11:00pm 2.5ft 14s 13 16 mph 1019.1mb 60f 60f
10:00pm 2ft 13s 13 18 mph 1019.4mb 60f 60f
9:00pm 2ft 14s 11 13 mph 1019.3mb 60f 60f
8:00pm 2ft 14s 11 13 mph 1019.4mb 59f 60f
7:00pm 1.6ft 14s 11 13 mph 1019.9mb 60f 60f
6:00pm 1.6ft 13s 9 11 mph 1020.2mb 60f 60f
5:00pm 1.6ft 14s 7 9 mph 1020.4mb 61f 61f
4:00pm 1.3ft 14s 9 9 mph 1020.5mb 62f 61f
3:00pm 1.3ft 16s 7 9 mph 1020.5mb 63f 61f
2:00pm 1.6ft 14s 4 4 mph 1020.4mb 62f 60f
1:00pm 1.3ft 14s 2 4 mph 1020.1mb 60f 60f
12:00pm 1.3ft 14s 4 4 mph 1019.7mb 59f 59f
11:00am 1.6ft 13s 7 7 mph 1019.3mb 59f 59f
10:00am 1.6ft 13s 9 9 mph 1018.7mb 59f 58f
9:00am 1.3ft 16s 9 9 mph 1018.4mb 59f 58f
8:00am 1.3ft 14s 9 9 mph 1018.1mb 59f 58f
7:00am 1.3ft 14s 7 9 mph 1017.7mb 59f 58f
6:00am 1.3ft 14s 9 9 mph 1017.4mb 59f 58f
5:00am 1.3ft 14s 9 9 mph 1017.2mb 59f 58f
4:00am 1.3ft 14s 7 7 mph 1017.1mb 59f 58f
3:00am 1.3ft 14s  -  mph 1017mb 58f 56f
2:00am 1.3ft 17s 2 2 mph 1017mb 58f 57f
1:00am 1.3ft 15s 4 4 mph 1016.9mb 59f 58f
12:00am 1.6ft 14s  -  0 mph 1016.8mb 58f 57f
Wed 07/19 11:00pm 1.6ft 8s 2 2 mph 1016.9mb 59f 58f
10:00pm 1.6ft 16s 2 2 mph 1016.8mb 59f 58f
9:00pm 1.6ft 8s 4 4 mph 1016.8mb 59f 58f
8:00pm 1.6ft 13s 2 4 mph 1017.1mb 59f 58f
7:00pm 1.6ft 15s 4 7 mph 1017.3mb 59f 58f
6:00pm 1.6ft 13s  -  0 mph 1017.6mb 59f 58f
5:00pm 1.6ft 14s  -  0 mph 1018.2mb 59f 58f
4:00pm 1.6ft 14s 7 9 mph 1018.9mb 59f 57f
3:00pm 1.6ft 14s 7 9 mph 1019.1mb 59f 58f
2:00pm 1.6ft 9s 9 11 mph 1019.3mb 59f 58f
1:00pm 1.6ft 14s 9 11 mph 1019.5mb 58f 58f
12:00pm 1.6ft 6s 7 9 mph 1019.7mb 58f 56f
11:00am 1.6ft 14s 9 11 mph 1019.6mb 58f 58f
10:00am 1.6ft 14s 9 11 mph 1019.3mb 58f 58f
9:00am 1.6ft 10s 9 11 mph 1019mb 58f 58f
8:00am 1.6ft 14s 11 13 mph 1018.8mb 58f 58f
7:00am 1.6ft 6s 9 11 mph 1018.8mb 58f 58f
6:00am 1.6ft 5s 7 7 mph 1018.7mb 58f 57f
5:00am 2ft 6s 4 4 mph 1018.8mb 58f 57f
4:00am 1.6ft 14s 2 7 mph 1018.7mb 58f 57f
3:00am 2ft 14s 2 2 mph 1018.7mb 58f 57f
2:00am 2ft 14s 4 4 mph 1018.5mb 58f 57f
1:00am 2ft 6s 4 7 mph 1018.4mb 57f 57f
12:00am 2ft 6s 4 9 mph 1018.2mb 57f 57f
Tue 07/18 11:00pm 2ft 5s 4 9 mph 1017.9mb 58f 57f
10:00pm 2ft 6s 7 9 mph 1017.7mb 58f 57f
9:00pm 2ft 6s 7 7 mph 1017.2mb 59f 57f
8:00pm 2ft 6s 7 7 mph 1017.4mb 59f 57f
7:00pm 2ft 6s 9 11 mph 1017.4mb 59f 56f
6:00pm 2ft 6s 9 11 mph 1017.4mb 60f 56f
5:00pm 2ft 14s 9 9 mph 1017.7mb 61f 58f
4:00pm 2ft 6s 4 4 mph 1018mb 62f 57f
3:00pm 2ft 14s 4 4 mph 1018mb 62f 57f
2:00pm 2ft 6s  -  2 mph 1017.7mb 60f 60f
1:00pm 2.5ft 5s 2 2 mph 1017.7mb 60f 59f
12:00pm 2.5ft 5s 4 4 mph 1017.5mb 59f 59f
11:00am 2.5ft 5s 7 7 mph 1017.2mb 58f 58f
10:00am 2.5ft 7s 4 7 mph 1017mb 58f 58f
9:00am 2.5ft 5s 4 7 mph 1017mb 58f 58f
7:00am 2.5ft 5s 11 13 mph 1016.7mb 57f 57f
6:00am 2.5ft 5s 11 13 mph 1016.7mb 57f 56f
5:00am 2.5ft 5s 11 13 mph 1016.8mb 57f 57f
4:00am 2.5ft 4s 13 16 mph 1016.9mb 57f 57f
3:00am 2.5ft 4s 13 16 mph 1017mb 57f 57f
2:00am 2.5ft 5s 16 18 mph 1017mb 57f 57f
1:00am 3ft 5s 16 18 mph 1017.3mb 57f 57f
12:00am 3.5ft 5s 13 16 mph 1017.4mb 57f 57f
Mon 07/17 11:00pm 3.5ft 5s 16 20 mph 1017.6mb 57f 57f
10:00pm 4ft 5s 18 20 mph 1017.9mb 58f 57f
9:00pm 3.5ft 5s 18 22 mph 1017.9mb 58f 57f
8:00pm 4ft 5s 18 22 mph 1018.3mb 58f 57f
7:00pm 3.5ft 5s 18 22 mph 1018.7mb 58f 58f
6:00pm 3.5ft 5s 18 22 mph 1019mb 58f 58f
5:00pm 3.5ft 4s 18 22 mph 1019.6mb 58f 58f